Kambuaya Airport


Codes: ID-KBX/KBX
Name: Kambuaya Airport
City: Kambuaya-Papua Island
Country: Indonesia
Elevation: 1422 ft.

Photos at Kambuaya Airport


   Photos courtesy of SpottingLog. You can add your own sightings and photos by signing up for a free trial today.



No photos found.

Weather at Kambuaya Airport


Time (UTC)DescriptionTempratureWindCloud coverageVisibilityPressureHumidity
16-Jun-2024 12:00Light Rain20°C2 mph, N100%10000m1012hPa99%
16-Jun-2024 15:00Light Rain20°C2 mph, N100%10000m1013hPa99%
16-Jun-2024 18:00Light Rain20°C0 mph, N100%10000m1011hPa99%
16-Jun-2024 21:00Overcast Clouds21°C2 mph, E97%10000m1012hPa99%
17-Jun-2024 00:00Overcast Clouds22°C2 mph, SE95%10000m1012hPa96%
17-Jun-2024 03:00Light Rain24°C4 mph, SE100%10000m1011hPa86%
17-Jun-2024 06:00Light Rain23°C2 mph, SE98%10000m1009hPa98%
17-Jun-2024 09:00Light Rain22°C0 mph, SE100%10000m1010hPa98%
17-Jun-2024 12:00Overcast Clouds22°C2 mph, SE100%10000m1012hPa99%
17-Jun-2024 15:00Overcast Clouds22°C2 mph, SE100%10000m1012hPa100%
17-Jun-2024 18:00Light Rain22°C2 mph, SE100%2209m1010hPa100%
17-Jun-2024 21:00Light Rain22°C2 mph, N100%0m1011hPa100%
18-Jun-2024 00:00Overcast Clouds24°C2 mph, SE95%10000m1011hPa91%
18-Jun-2024 03:00Broken Clouds28°C4 mph, S73%10000m1009hPa65%
18-Jun-2024 06:00Light Rain24°C4 mph, S82%10000m1008hPa95%
18-Jun-2024 09:00Moderate Rain22°C2 mph, S96%6156m1009hPa98%
18-Jun-2024 12:00Moderate Rain22°C0 mph, E98%9339m1011hPa99%
18-Jun-2024 15:00Moderate Rain21°C0 mph, NE100%10000m1011hPa99%
18-Jun-2024 18:00Light Rain21°C0 mph, SE99%10000m1010hPa99%
18-Jun-2024 21:00Light Rain21°C2 mph, SE99%10000m1010hPa99%
19-Jun-2024 00:00Light Rain23°C2 mph, SE91%10000m1011hPa95%
19-Jun-2024 03:00Moderate Rain23°C2 mph, S95%10000m1010hPa97%
19-Jun-2024 06:00Moderate Rain24°C2 mph, SW96%7209m1008hPa95%
19-Jun-2024 09:00Moderate Rain22°C2 mph, SW100%6551m1009hPa98%
19-Jun-2024 12:00Moderate Rain21°C2 mph, N100%0m1011hPa100%
19-Jun-2024 15:00Light Rain21°C0 mph, N100%0m1011hPa100%
19-Jun-2024 18:00Light Rain21°C0 mph, N99%0m1009hPa100%
19-Jun-2024 21:00Light Rain21°C2 mph, N88%0m1010hPa100%
20-Jun-2024 00:00Broken Clouds24°C2 mph, SE83%10000m1012hPa89%
20-Jun-2024 03:00Light Rain24°C4 mph, SE91%10000m1010hPa88%
20-Jun-2024 06:00Light Rain25°C4 mph, SE95%10000m1008hPa84%
20-Jun-2024 09:00Overcast Clouds22°C2 mph, SE97%10000m1010hPa97%
20-Jun-2024 12:00Light Rain21°C2 mph, E99%10000m1012hPa98%
20-Jun-2024 15:00Light Rain21°C2 mph, E100%10000m1011hPa99%
20-Jun-2024 18:00Overcast Clouds21°C2 mph, SE92%10000m1010hPa100%
20-Jun-2024 21:00Broken Clouds21°C2 mph, N62%0m1011hPa100%
21-Jun-2024 00:00Broken Clouds24°C4 mph, SE71%10000m1011hPa88%
21-Jun-2024 03:00Scattered Clouds29°C4 mph, S48%10000m1010hPa62%
21-Jun-2024 06:00Light Rain26°C4 mph, S67%10000m1008hPa83%
21-Jun-2024 09:00Moderate Rain23°C2 mph, S98%10000m1010hPa97%